sensor_id;sensor_type;location;lat;lon;timestamp;temperature;humidity
55207;DHT22;41079;52.856;6.534;2022-08-07T00:01:34;9.80;99.90
55207;DHT22;41079;52.856;6.534;2022-08-07T00:04:00;9.80;99.90
55207;DHT22;41079;52.856;6.534;2022-08-07T00:06:26;9.90;99.90
55207;DHT22;41079;52.856;6.534;2022-08-07T00:08:51;9.90;99.90
55207;DHT22;41079;52.856;6.534;2022-08-07T00:11:17;9.90;99.90
55207;DHT22;41079;52.856;6.534;2022-08-07T00:13:43;10.00;99.90
55207;DHT22;41079;52.856;6.534;2022-08-07T00:16:11;10.00;99.90
55207;DHT22;41079;52.856;6.534;2022-08-07T00:18:36;9.90;99.90
55207;DHT22;41079;52.856;6.534;2022-08-07T00:21:04;9.90;99.90
55207;DHT22;41079;52.856;6.534;2022-08-07T00:23:31;9.80;99.90
55207;DHT22;41079;52.856;6.534;2022-08-07T00:25:58;9.80;99.90
55207;DHT22;41079;52.856;6.534;2022-08-07T00:28:24;9.80;99.90
55207;DHT22;41079;52.856;6.534;2022-08-07T00:30:50;9.80;99.90
55207;DHT22;41079;52.856;6.534;2022-08-07T00:33:16;9.80;99.90
55207;DHT22;41079;52.856;6.534;2022-08-07T00:35:42;9.90;99.90
55207;DHT22;41079;52.856;6.534;2022-08-07T00:38:07;9.90;99.90
55207;DHT22;41079;52.856;6.534;2022-08-07T00:40:33;9.90;99.90
55207;DHT22;41079;52.856;6.534;2022-08-07T00:42:59;9.90;99.90
55207;DHT22;41079;52.856;6.534;2022-08-07T00:45:24;9.90;99.90
55207;DHT22;41079;52.856;6.534;2022-08-07T00:47:50;9.90;99.90
55207;DHT22;41079;52.856;6.534;2022-08-07T00:50:16;9.90;99.90
55207;DHT22;41079;52.856;6.534;2022-08-07T00:52:42;9.90;99.90
55207;DHT22;41079;52.856;6.534;2022-08-07T00:55:08;9.90;99.90
55207;DHT22;41079;52.856;6.534;2022-08-07T00:57:34;9.90;99.90
55207;DHT22;41079;52.856;6.534;2022-08-07T01:00:01;9.90;99.90
55207;DHT22;41079;52.856;6.534;2022-08-07T01:02:27;9.80;99.90
55207;DHT22;41079;52.856;6.534;2022-08-07T01:04:53;9.80;99.90
55207;DHT22;41079;52.856;6.534;2022-08-07T01:07:20;9.80;99.90
55207;DHT22;41079;52.856;6.534;2022-08-07T01:09:46;9.90;99.90
55207;DHT22;41079;52.856;6.534;2022-08-07T01:12:13;9.90;99.90
55207;DHT22;41079;52.856;6.534;2022-08-07T01:14:39;9.80;99.90
55207;DHT22;41079;52.856;6.534;2022-08-07T01:17:05;9.80;99.90
55207;DHT22;41079;52.856;6.534;2022-08-07T01:19:31;9.80;99.90
55207;DHT22;41079;52.856;6.534;2022-08-07T01:21:58;9.70;99.90
55207;DHT22;41079;52.856;6.534;2022-08-07T01:24:25;9.60;99.90
55207;DHT22;41079;52.856;6.534;2022-08-07T01:26:52;9.50;99.90
55207;DHT22;41079;52.856;6.534;2022-08-07T01:29:21;9.60;99.90
55207;DHT22;41079;52.856;6.534;2022-08-07T01:31:47;9.50;99.90
55207;DHT22;41079;52.856;6.534;2022-08-07T01:34:12;9.60;99.90
55207;DHT22;41079;52.856;6.534;2022-08-07T01:36:38;9.60;99.90
55207;DHT22;41079;52.856;6.534;2022-08-07T01:39:04;9.60;99.90
55207;DHT22;41079;52.856;6.534;2022-08-07T01:41:30;9.60;99.90
55207;DHT22;41079;52.856;6.534;2022-08-07T01:43:56;9.70;99.90
55207;DHT22;41079;52.856;6.534;2022-08-07T01:46:22;9.70;99.90
55207;DHT22;41079;52.856;6.534;2022-08-07T01:48:48;9.70;99.90
55207;DHT22;41079;52.856;6.534;2022-08-07T01:51:19;9.70;99.90
55207;DHT22;41079;52.856;6.534;2022-08-07T01:53:47;9.80;99.90
55207;DHT22;41079;52.856;6.534;2022-08-07T01:56:16;9.80;99.90
55207;DHT22;41079;52.856;6.534;2022-08-07T01:58:48;9.90;99.90
55207;DHT22;41079;52.856;6.534;2022-08-07T02:01:21;10.00;99.90
55207;DHT22;41079;52.856;6.534;2022-08-07T02:03:55;10.00;99.90
55207;DHT22;41079;52.856;6.534;2022-08-07T02:06:22;10.10;99.90
55207;DHT22;41079;52.856;6.534;2022-08-07T02:08:49;10.00;99.90
55207;DHT22;41079;52.856;6.534;2022-08-07T02:11:15;10.00;99.90
55207;DHT22;41079;52.856;6.534;2022-08-07T02:13:42;10.00;99.90
55207;DHT22;41079;52.856;6.534;2022-08-07T02:16:09;10.00;99.90
55207;DHT22;41079;52.856;6.534;2022-08-07T02:18:36;9.90;99.90
55207;DHT22;41079;52.856;6.534;2022-08-07T02:21:04;9.90;99.90
55207;DHT22;41079;52.856;6.534;2022-08-07T02:23:33;9.80;99.90
55207;DHT22;41079;52.856;6.534;2022-08-07T02:26:02;9.80;99.90
55207;DHT22;41079;52.856;6.534;2022-08-07T02:28:30;9.70;99.90
55207;DHT22;41079;52.856;6.534;2022-08-07T02:30:56;9.70;99.90
55207;DHT22;41079;52.856;6.534;2022-08-07T02:33:24;9.70;99.90
55207;DHT22;41079;52.856;6.534;2022-08-07T02:35:51;9.70;99.90
55207;DHT22;41079;52.856;6.534;2022-08-07T02:38:18;9.70;99.90
55207;DHT22;41079;52.856;6.534;2022-08-07T02:40:46;9.80;99.90
55207;DHT22;41079;52.856;6.534;2022-08-07T02:43:12;9.80;99.90
55207;DHT22;41079;52.856;6.534;2022-08-07T02:45:41;9.80;99.90
55207;DHT22;41079;52.856;6.534;2022-08-07T02:48:07;9.80;99.90
55207;DHT22;41079;52.856;6.534;2022-08-07T02:50:37;9.80;99.90
55207;DHT22;41079;52.856;6.534;2022-08-07T02:53:09;9.80;99.90
55207;DHT22;41079;52.856;6.534;2022-08-07T02:55:42;9.80;99.90
55207;DHT22;41079;52.856;6.534;2022-08-07T02:58:12;9.80;99.90
55207;DHT22;41079;52.856;6.534;2022-08-07T03:00:40;9.70;99.90
55207;DHT22;41079;52.856;6.534;2022-08-07T03:03:07;9.70;99.90
55207;DHT22;41079;52.856;6.534;2022-08-07T03:05:34;9.70;99.90
55207;DHT22;41079;52.856;6.534;2022-08-07T03:08:02;9.70;99.90
55207;DHT22;41079;52.856;6.534;2022-08-07T03:10:28;9.70;99.90
55207;DHT22;41079;52.856;6.534;2022-08-07T03:12:55;9.70;99.90
55207;DHT22;41079;52.856;6.534;2022-08-07T03:15:21;9.70;99.90
55207;DHT22;41079;52.856;6.534;2022-08-07T03:17:47;9.50;99.90
55207;DHT22;41079;52.856;6.534;2022-08-07T03:20:14;9.40;99.90
55207;DHT22;41079;52.856;6.534;2022-08-07T03:22:41;9.40;99.90
55207;DHT22;41079;52.856;6.534;2022-08-07T03:25:07;9.30;99.90
55207;DHT22;41079;52.856;6.534;2022-08-07T03:27:33;9.40;99.90
55207;DHT22;41079;52.856;6.534;2022-08-07T03:30:00;9.30;99.90
55207;DHT22;41079;52.856;6.534;2022-08-07T03:32:38;9.30;99.90
55207;DHT22;41079;52.856;6.534;2022-08-07T03:35:08;9.20;99.90
55207;DHT22;41079;52.856;6.534;2022-08-07T03:37:35;9.10;99.90
55207;DHT22;41079;52.856;6.534;2022-08-07T03:40:02;9.10;99.90
55207;DHT22;41079;52.856;6.534;2022-08-07T03:42:29;9.20;99.90
55207;DHT22;41079;52.856;6.534;2022-08-07T03:44:55;9.20;99.90
55207;DHT22;41079;52.856;6.534;2022-08-07T03:47:21;9.10;99.90
55207;DHT22;41079;52.856;6.534;2022-08-07T03:49:47;9.10;99.90
55207;DHT22;41079;52.856;6.534;2022-08-07T03:52:13;9.00;99.90
55207;DHT22;41079;52.856;6.534;2022-08-07T03:54:39;9.00;99.90
55207;DHT22;41079;52.856;6.534;2022-08-07T03:57:06;9.00;99.90
55207;DHT22;41079;52.856;6.534;2022-08-07T03:59:32;9.00;99.90
55207;DHT22;41079;52.856;6.534;2022-08-07T04:01:58;9.00;99.90
55207;DHT22;41079;52.856;6.534;2022-08-07T04:04:24;8.90;99.90
55207;DHT22;41079;52.856;6.534;2022-08-07T04:06:51;8.80;99.90
55207;DHT22;41079;52.856;6.534;2022-08-07T04:09:17;8.80;99.90
55207;DHT22;41079;52.856;6.534;2022-08-07T04:11:44;8.70;99.90
55207;DHT22;41079;52.856;6.534;2022-08-07T04:14:10;8.80;99.90
55207;DHT22;41079;52.856;6.534;2022-08-07T04:16:36;8.80;99.90
55207;DHT22;41079;52.856;6.534;2022-08-07T04:19:03;8.80;99.90
55207;DHT22;41079;52.856;6.534;2022-08-07T04:21:30;8.80;99.90
55207;DHT22;41079;52.856;6.534;2022-08-07T04:23:56;8.80;99.90
55207;DHT22;41079;52.856;6.534;2022-08-07T04:26:22;8.80;99.90
55207;DHT22;41079;52.856;6.534;2022-08-07T04:28:48;8.80;99.90
55207;DHT22;41079;52.856;6.534;2022-08-07T04:31:14;8.80;99.90
55207;DHT22;41079;52.856;6.534;2022-08-07T04:33:40;8.80;99.90
55207;DHT22;41079;52.856;6.534;2022-08-07T04:36:07;8.90;99.90
55207;DHT22;41079;52.856;6.534;2022-08-07T04:38:34;9.00;99.90
55207;DHT22;41079;52.856;6.534;2022-08-07T04:41:00;9.00;99.90
55207;DHT22;41079;52.856;6.534;2022-08-07T04:43:33;9.00;99.90
55207;DHT22;41079;52.856;6.534;2022-08-07T04:49:09;9.50;99.90
55207;DHT22;41079;52.856;6.534;2022-08-07T04:55:05;11.10;99.90
55207;DHT22;41079;52.856;6.534;2022-08-07T04:57:45;11.80;99.90
55207;DHT22;41079;52.856;6.534;2022-08-07T05:00:52;12.30;99.90
55207;DHT22;41079;52.856;6.534;2022-08-07T05:03:30;12.90;99.90
55207;DHT22;41079;52.856;6.534;2022-08-07T05:06:13;13.30;99.90
55207;DHT22;41079;52.856;6.534;2022-08-07T05:08:46;13.70;99.90
55207;DHT22;41079;52.856;6.534;2022-08-07T05:11:23;14.20;99.90
55207;DHT22;41079;52.856;6.534;2022-08-07T05:14:09;14.40;99.90
55207;DHT22;41079;52.856;6.534;2022-08-07T05:16:36;14.40;99.90
55207;DHT22;41079;52.856;6.534;2022-08-07T05:19:09;14.60;99.90
55207;DHT22;41079;52.856;6.534;2022-08-07T05:21:37;15.00;99.90
55207;DHT22;41079;52.856;6.534;2022-08-07T05:24:10;15.20;99.90
55207;DHT22;41079;52.856;6.534;2022-08-07T05:26:37;15.70;99.90
55207;DHT22;41079;52.856;6.534;2022-08-07T05:29:06;16.40;99.90
55207;DHT22;41079;52.856;6.534;2022-08-07T05:31:35;16.70;99.90
55207;DHT22;41079;52.856;6.534;2022-08-07T05:34:04;17.20;99.90
55207;DHT22;41079;52.856;6.534;2022-08-07T05:36:31;17.60;99.90
55207;DHT22;41079;52.856;6.534;2022-08-07T05:38:58;17.90;99.90
55207;DHT22;41079;52.856;6.534;2022-08-07T05:41:25;18.20;99.90
55207;DHT22;41079;52.856;6.534;2022-08-07T05:43:53;18.30;99.90
55207;DHT22;41079;52.856;6.534;2022-08-07T05:46:20;18.00;99.90
55207;DHT22;41079;52.856;6.534;2022-08-07T05:48:48;17.50;99.90
55207;DHT22;41079;52.856;6.534;2022-08-07T05:51:15;16.90;99.90
55207;DHT22;41079;52.856;6.534;2022-08-07T05:53:41;16.60;99.90
55207;DHT22;41079;52.856;6.534;2022-08-07T05:56:08;16.40;99.90
55207;DHT22;41079;52.856;6.534;2022-08-07T05:58:36;16.00;99.90
55207;DHT22;41079;52.856;6.534;2022-08-07T06:01:02;15.90;99.90
55207;DHT22;41079;52.856;6.534;2022-08-07T06:03:29;16.10;99.90
55207;DHT22;41079;52.856;6.534;2022-08-07T06:05:56;16.20;99.90
55207;DHT22;41079;52.856;6.534;2022-08-07T06:08:22;16.30;99.90
55207;DHT22;41079;52.856;6.534;2022-08-07T06:10:48;16.40;99.90
55207;DHT22;41079;52.856;6.534;2022-08-07T06:13:15;16.60;99.90
55207;DHT22;41079;52.856;6.534;2022-08-07T06:15:41;16.70;99.90
55207;DHT22;41079;52.856;6.534;2022-08-07T06:18:07;16.60;99.90
55207;DHT22;41079;52.856;6.534;2022-08-07T06:20:37;16.70;99.90
55207;DHT22;41079;52.856;6.534;2022-08-07T06:23:06;16.80;99.90
55207;DHT22;41079;52.856;6.534;2022-08-07T06:25:33;17.10;99.90
55207;DHT22;41079;52.856;6.534;2022-08-07T06:28:06;17.30;99.90
55207;DHT22;41079;52.856;6.534;2022-08-07T06:30:33;17.50;99.90
55207;DHT22;41079;52.856;6.534;2022-08-07T06:33:00;17.60;99.90
55207;DHT22;41079;52.856;6.534;2022-08-07T06:35:26;17.70;99.90
55207;DHT22;41079;52.856;6.534;2022-08-07T06:37:51;17.90;99.90
55207;DHT22;41079;52.856;6.534;2022-08-07T06:40:17;18.20;99.90
55207;DHT22;41079;52.856;6.534;2022-08-07T06:42:46;18.40;99.90
55207;DHT22;41079;52.856;6.534;2022-08-07T06:45:14;18.50;99.90
55207;DHT22;41079;52.856;6.534;2022-08-07T06:47:41;18.50;99.90
55207;DHT22;41079;52.856;6.534;2022-08-07T06:50:07;18.60;99.90
55207;DHT22;41079;52.856;6.534;2022-08-07T06:52:35;18.70;99.90
55207;DHT22;41079;52.856;6.534;2022-08-07T06:55:08;18.80;99.90
55207;DHT22;41079;52.856;6.534;2022-08-07T06:57:36;18.90;99.90
55207;DHT22;41079;52.856;6.534;2022-08-07T07:00:03;19.00;99.90
55207;DHT22;41079;52.856;6.534;2022-08-07T07:02:29;19.20;99.90
55207;DHT22;41079;52.856;6.534;2022-08-07T07:04:56;19.50;99.90
55207;DHT22;41079;52.856;6.534;2022-08-07T07:07:22;19.70;99.90
55207;DHT22;41079;52.856;6.534;2022-08-07T07:09:49;19.80;99.90
55207;DHT22;41079;52.856;6.534;2022-08-07T07:15:00;20.10;99.90
55207;DHT22;41079;52.856;6.534;2022-08-07T07:17:40;20.20;99.90
55207;DHT22;41079;52.856;6.534;2022-08-07T07:20:11;20.30;99.50
55207;DHT22;41079;52.856;6.534;2022-08-07T07:22:38;20.20;97.80
55207;DHT22;41079;52.856;6.534;2022-08-07T07:25:05;20.30;99.40
55207;DHT22;41079;52.856;6.534;2022-08-07T07:27:35;20.40;98.50
55207;DHT22;41079;52.856;6.534;2022-08-07T07:30:05;20.60;98.10
55207;DHT22;41079;52.856;6.534;2022-08-07T07:32:33;20.80;96.00
55207;DHT22;41079;52.856;6.534;2022-08-07T07:35:04;21.00;95.90
55207;DHT22;41079;52.856;6.534;2022-08-07T07:37:33;21.20;97.80
55207;DHT22;41079;52.856;6.534;2022-08-07T07:40:02;21.20;93.60
55207;DHT22;41079;52.856;6.534;2022-08-07T07:42:30;21.10;93.90
55207;DHT22;41079;52.856;6.534;2022-08-07T07:44:58;21.00;92.50
55207;DHT22;41079;52.856;6.534;2022-08-07T07:47:24;20.90;93.20
55207;DHT22;41079;52.856;6.534;2022-08-07T07:49:51;20.90;93.00
55207;DHT22;41079;52.856;6.534;2022-08-07T07:52:20;21.10;94.10
55207;DHT22;41079;52.856;6.534;2022-08-07T07:54:46;21.30;92.80
55207;DHT22;41079;52.856;6.534;2022-08-07T07:57:14;21.50;93.20
55207;DHT22;41079;52.856;6.534;2022-08-07T07:59:41;21.50;91.70
55207;DHT22;41079;52.856;6.534;2022-08-07T08:02:08;21.40;91.90
55207;DHT22;41079;52.856;6.534;2022-08-07T08:04:36;21.50;92.10
55207;DHT22;41079;52.856;6.534;2022-08-07T08:07:02;21.80;92.50
55207;DHT22;41079;52.856;6.534;2022-08-07T08:09:28;22.00;93.30
55207;DHT22;41079;52.856;6.534;2022-08-07T08:11:56;22.20;92.50
55207;DHT22;41079;52.856;6.534;2022-08-07T08:14:22;22.30;91.60
55207;DHT22;41079;52.856;6.534;2022-08-07T08:16:50;22.50;92.00
55207;DHT22;41079;52.856;6.534;2022-08-07T08:19:18;22.50;90.90
55207;DHT22;41079;52.856;6.534;2022-08-07T08:21:48;22.60;90.50
55207;DHT22;41079;52.856;6.534;2022-08-07T08:24:44;22.70;90.60
55207;DHT22;41079;52.856;6.534;2022-08-07T08:27:33;22.70;87.30
55207;DHT22;41079;52.856;6.534;2022-08-07T08:30:11;22.80;88.60
55207;DHT22;41079;52.856;6.534;2022-08-07T08:32:40;22.60;87.80
55207;DHT22;41079;52.856;6.534;2022-08-07T08:35:08;22.60;89.00
55207;DHT22;41079;52.856;6.534;2022-08-07T08:37:36;22.80;88.90
55207;DHT22;41079;52.856;6.534;2022-08-07T08:40:08;23.00;89.60
55207;DHT22;41079;52.856;6.534;2022-08-07T08:48:21;23.20;87.40
55207;DHT22;41079;52.856;6.534;2022-08-07T08:51:22;23.30;86.70
55207;DHT22;41079;52.856;6.534;2022-08-07T08:54:09;23.60;84.00
55207;DHT22;41079;52.856;6.534;2022-08-07T08:56:42;23.70;80.00
55207;DHT22;41079;52.856;6.534;2022-08-07T08:59:26;23.80;80.30
55207;DHT22;41079;52.856;6.534;2022-08-07T09:02:26;23.60;76.20
55207;DHT22;41079;52.856;6.534;2022-08-07T09:10:24;24.00;79.90
55207;DHT22;41079;52.856;6.534;2022-08-07T09:13:12;24.10;77.40
55207;DHT22;41079;52.856;6.534;2022-08-07T09:15:57;24.20;75.80
55207;DHT22;41079;52.856;6.534;2022-08-07T09:30:14;24.00;74.90
55207;DHT22;41079;52.856;6.534;2022-08-07T09:35:35;23.90;72.30
55207;DHT22;41079;52.856;6.534;2022-08-07T09:43:41;23.40;76.20
55207;DHT22;41079;52.856;6.534;2022-08-07T09:46:34;23.50;75.50
55207;DHT22;41079;52.856;6.534;2022-08-07T09:52:00;24.10;74.20
55207;DHT22;41079;52.856;6.534;2022-08-07T09:54:38;24.30;72.80
55207;DHT22;41079;52.856;6.534;2022-08-07T09:57:36;24.70;73.00
55207;DHT22;41079;52.856;6.534;2022-08-07T10:00:08;25.00;72.10
55207;DHT22;41079;52.856;6.534;2022-08-07T10:14:08;25.10;65.60
55207;DHT22;41079;52.856;6.534;2022-08-07T10:16:52;25.30;68.20
55207;DHT22;41079;52.856;6.534;2022-08-07T10:19:41;25.60;68.10
55207;DHT22;41079;52.856;6.534;2022-08-07T10:31:14;24.70;63.10
55207;DHT22;41079;52.856;6.534;2022-08-07T10:34:04;24.80;64.10
55207;DHT22;41079;52.856;6.534;2022-08-07T10:42:10;25.00;60.10
55207;DHT22;41079;52.856;6.534;2022-08-07T10:48:02;24.60;61.80
55207;DHT22;41079;52.856;6.534;2022-08-07T10:50:36;25.00;62.60
55207;DHT22;41079;52.856;6.534;2022-08-07T10:53:15;25.50;61.90
55207;DHT22;41079;52.856;6.534;2022-08-07T10:55:46;25.70;58.50
55207;DHT22;41079;52.856;6.534;2022-08-07T11:09:44;25.40;57.70
55207;DHT22;41079;52.856;6.534;2022-08-07T11:12:22;25.20;57.50
55207;DHT22;41079;52.856;6.534;2022-08-07T11:14:54;25.20;56.80
55207;DHT22;41079;52.856;6.534;2022-08-07T11:17:45;25.40;57.20
55207;DHT22;41079;52.856;6.534;2022-08-07T11:20:25;25.60;57.30
55207;DHT22;41079;52.856;6.534;2022-08-07T11:23:02;25.80;57.10
55207;DHT22;41079;52.856;6.534;2022-08-07T11:25:35;26.30;58.20
55207;DHT22;41079;52.856;6.534;2022-08-07T11:28:23;26.70;55.40
55207;DHT22;41079;52.856;6.534;2022-08-07T11:31:02;26.70;55.60
55207;DHT22;41079;52.856;6.534;2022-08-07T11:33:52;26.70;53.00
55207;DHT22;41079;52.856;6.534;2022-08-07T11:42:25;26.40;51.90
55207;DHT22;41079;52.856;6.534;2022-08-07T11:45:09;26.30;51.80
55207;DHT22;41079;52.856;6.534;2022-08-07T11:51:28;25.80;52.30
55207;DHT22;41079;52.856;6.534;2022-08-07T11:53:33;25.90;51.00
55207;DHT22;41079;52.856;6.534;2022-08-07T11:56:40;25.80;51.10
55207;DHT22;41079;52.856;6.534;2022-08-07T11:59:52;25.70;51.60
55207;DHT22;41079;52.856;6.534;2022-08-07T12:02:46;25.80;50.90
55207;DHT22;41079;52.856;6.534;2022-08-07T12:05:28;25.80;51.40
55207;DHT22;41079;52.856;6.534;2022-08-07T12:08:15;25.90;50.40
55207;DHT22;41079;52.856;6.534;2022-08-07T12:10:53;26.00;50.90
55207;DHT22;41079;52.856;6.534;2022-08-07T12:13:39;26.30;50.60
55207;DHT22;41079;52.856;6.534;2022-08-07T12:16:28;26.40;50.30
55207;DHT22;41079;52.856;6.534;2022-08-07T12:22:04;26.40;50.10
55207;DHT22;41079;52.856;6.534;2022-08-07T12:27:47;26.60;46.60
55207;DHT22;41079;52.856;6.534;2022-08-07T12:30:15;26.50;47.90
55207;DHT22;41079;52.856;6.534;2022-08-07T12:32:57;26.60;46.80
55207;DHT22;41079;52.856;6.534;2022-08-07T12:35:26;26.60;48.20
55207;DHT22;41079;52.856;6.534;2022-08-07T12:37:53;26.70;47.40
55207;DHT22;41079;52.856;6.534;2022-08-07T12:40:22;27.00;47.70
55207;DHT22;41079;52.856;6.534;2022-08-07T12:42:54;27.10;46.10
55207;DHT22;41079;52.856;6.534;2022-08-07T12:45:25;27.10;48.20
55207;DHT22;41079;52.856;6.534;2022-08-07T12:47:54;27.30;48.70
55207;DHT22;41079;52.856;6.534;2022-08-07T12:50:27;27.20;46.90
55207;DHT22;41079;52.856;6.534;2022-08-07T12:58:20;27.10;48.20
55207;DHT22;41079;52.856;6.534;2022-08-07T13:00:53;27.10;48.10
55207;DHT22;41079;52.856;6.534;2022-08-07T13:09:33;27.10;47.50
55207;DHT22;41079;52.856;6.534;2022-08-07T13:12:25;27.10;45.80
55207;DHT22;41079;52.856;6.534;2022-08-07T13:15:15;27.10;48.30
55207;DHT22;41079;52.856;6.534;2022-08-07T13:20:55;27.60;47.70
55207;DHT22;41079;52.856;6.534;2022-08-07T13:23:31;27.80;48.10
55207;DHT22;41079;52.856;6.534;2022-08-07T13:29:13;27.50;47.00
55207;DHT22;41079;52.856;6.534;2022-08-07T13:37:09;26.30;48.50
55207;DHT22;41079;52.856;6.534;2022-08-07T13:42:23;26.30;48.90
55207;DHT22;41079;52.856;6.534;2022-08-07T13:44:52;26.60;49.10
55207;DHT22;41079;52.856;6.534;2022-08-07T13:47:19;26.60;48.70
55207;DHT22;41079;52.856;6.534;2022-08-07T13:49:47;26.30;49.70
55207;DHT22;41079;52.856;6.534;2022-08-07T13:52:14;26.10;50.00
55207;DHT22;41079;52.856;6.534;2022-08-07T13:54:41;26.10;50.00
55207;DHT22;41079;52.856;6.534;2022-08-07T13:57:10;26.10;50.10
55207;DHT22;41079;52.856;6.534;2022-08-07T13:59:44;26.20;50.50
55207;DHT22;41079;52.856;6.534;2022-08-07T14:02:21;26.30;50.90
55207;DHT22;41079;52.856;6.534;2022-08-07T14:04:50;26.40;50.90
55207;DHT22;41079;52.856;6.534;2022-08-07T14:07:25;26.30;49.90
55207;DHT22;41079;52.856;6.534;2022-08-07T14:09:54;26.30;51.30
55207;DHT22;41079;52.856;6.534;2022-08-07T14:15:34;25.60;50.70
55207;DHT22;41079;52.856;6.534;2022-08-07T14:18:05;24.90;51.70
55207;DHT22;41079;52.856;6.534;2022-08-07T14:20:35;24.50;52.90
55207;DHT22;41079;52.856;6.534;2022-08-07T14:23:11;24.40;53.80
55207;DHT22;41079;52.856;6.534;2022-08-07T14:25:40;24.50;54.10
55207;DHT22;41079;52.856;6.534;2022-08-07T14:28:07;24.60;53.60
55207;DHT22;41079;52.856;6.534;2022-08-07T14:30:36;24.50;54.30
55207;DHT22;41079;52.856;6.534;2022-08-07T14:33:03;24.50;54.10
55207;DHT22;41079;52.856;6.534;2022-08-07T14:35:35;24.40;54.10
55207;DHT22;41079;52.856;6.534;2022-08-07T14:38:02;24.10;55.40
55207;DHT22;41079;52.856;6.534;2022-08-07T14:40:29;23.80;56.30
55207;DHT22;41079;52.856;6.534;2022-08-07T14:43:07;23.60;56.60
55207;DHT22;41079;52.856;6.534;2022-08-07T14:48:13;23.60;58.60
55207;DHT22;41079;52.856;6.534;2022-08-07T14:50:46;23.90;59.10
55207;DHT22;41079;52.856;6.534;2022-08-07T14:53:12;24.30;57.70
55207;DHT22;41079;52.856;6.534;2022-08-07T14:55:40;24.60;58.20
55207;DHT22;41079;52.856;6.534;2022-08-07T14:58:11;24.80;57.30
55207;DHT22;41079;52.856;6.534;2022-08-07T15:00:38;25.00;56.50
55207;DHT22;41079;52.856;6.534;2022-08-07T15:03:06;25.10;56.20
55207;DHT22;41079;52.856;6.534;2022-08-07T15:05:33;24.90;55.90
55207;DHT22;41079;52.856;6.534;2022-08-07T15:08:03;24.60;55.10
55207;DHT22;41079;52.856;6.534;2022-08-07T15:10:31;24.80;56.10
55207;DHT22;41079;52.856;6.534;2022-08-07T15:13:03;25.20;56.90
55207;DHT22;41079;52.856;6.534;2022-08-07T15:15:37;25.50;55.60
55207;DHT22;41079;52.856;6.534;2022-08-07T15:18:07;25.70;53.20
55207;DHT22;41079;52.856;6.534;2022-08-07T15:20:36;25.80;53.40
55207;DHT22;41079;52.856;6.534;2022-08-07T15:23:08;25.90;53.60
55207;DHT22;41079;52.856;6.534;2022-08-07T15:25:37;26.00;53.10
55207;DHT22;41079;52.856;6.534;2022-08-07T15:28:06;26.10;52.60
55207;DHT22;41079;52.856;6.534;2022-08-07T15:30:33;26.00;52.70
55207;DHT22;41079;52.856;6.534;2022-08-07T15:33:02;26.20;51.70
55207;DHT22;41079;52.856;6.534;2022-08-07T15:35:30;26.10;51.70
55207;DHT22;41079;52.856;6.534;2022-08-07T15:37:59;25.90;50.50
55207;DHT22;41079;52.856;6.534;2022-08-07T15:40:28;25.60;51.50
55207;DHT22;41079;52.856;6.534;2022-08-07T15:42:54;25.60;52.50
55207;DHT22;41079;52.856;6.534;2022-08-07T15:47:58;25.70;52.50
55207;DHT22;41079;52.856;6.534;2022-08-07T15:50:27;25.90;51.90
55207;DHT22;41079;52.856;6.534;2022-08-07T15:53:27;25.90;51.50
55207;DHT22;41079;52.856;6.534;2022-08-07T15:55:51;25.90;51.20
55207;DHT22;41079;52.856;6.534;2022-08-07T15:58:22;26.10;51.80
55207;DHT22;41079;52.856;6.534;2022-08-07T16:00:53;26.20;50.30
55207;DHT22;41079;52.856;6.534;2022-08-07T16:03:21;26.20;52.30
55207;DHT22;41079;52.856;6.534;2022-08-07T16:05:50;26.20;52.10
55207;DHT22;41079;52.856;6.534;2022-08-07T16:08:20;26.20;50.60
55207;DHT22;41079;52.856;6.534;2022-08-07T16:10:50;25.80;51.00
55207;DHT22;41079;52.856;6.534;2022-08-07T16:16:07;25.00;52.00
55207;DHT22;41079;52.856;6.534;2022-08-07T16:18:37;24.80;52.70
55207;DHT22;41079;52.856;6.534;2022-08-07T16:21:24;24.70;53.20
55207;DHT22;41079;52.856;6.534;2022-08-07T16:24:21;24.60;53.40
55207;DHT22;41079;52.856;6.534;2022-08-07T16:27:18;24.40;53.50
55207;DHT22;41079;52.856;6.534;2022-08-07T16:32:43;24.50;53.60
55207;DHT22;41079;52.856;6.534;2022-08-07T16:40:49;24.00;53.90
55207;DHT22;41079;52.856;6.534;2022-08-07T16:43:39;23.70;54.60
55207;DHT22;41079;52.856;6.534;2022-08-07T16:51:53;22.90;56.40
55207;DHT22;41079;52.856;6.534;2022-08-07T16:54:31;22.80;56.70
55207;DHT22;41079;52.856;6.534;2022-08-07T17:10:33;23.30;58.20
55207;DHT22;41079;52.856;6.534;2022-08-07T17:15:57;23.20;58.90
55207;DHT22;41079;52.856;6.534;2022-08-07T17:18:28;23.10;59.00
55207;DHT22;41079;52.856;6.534;2022-08-07T17:20:56;23.00;59.70
55207;DHT22;41079;52.856;6.534;2022-08-07T17:26:17;23.10;58.90
55207;DHT22;41079;52.856;6.534;2022-08-07T17:29:07;23.00;59.00
55207;DHT22;41079;52.856;6.534;2022-08-07T17:34:17;22.90;59.00
55207;DHT22;41079;52.856;6.534;2022-08-07T17:36:49;22.90;58.60
55207;DHT22;41079;52.856;6.534;2022-08-07T17:39:19;22.90;58.60
55207;DHT22;41079;52.856;6.534;2022-08-07T17:41:52;22.90;59.10
55207;DHT22;41079;52.856;6.534;2022-08-07T17:44:41;22.90;58.70
55207;DHT22;41079;52.856;6.534;2022-08-07T17:50:16;22.70;60.80
55207;DHT22;41079;52.856;6.534;2022-08-07T17:52:53;22.60;61.60
55207;DHT22;41079;52.856;6.534;2022-08-07T17:55:37;22.50;62.00
55207;DHT22;41079;52.856;6.534;2022-08-07T17:58:16;22.40;62.70
55207;DHT22;41079;52.856;6.534;2022-08-07T18:00:49;22.20;63.50
55207;DHT22;41079;52.856;6.534;2022-08-07T18:03:26;22.00;64.20
55207;DHT22;41079;52.856;6.534;2022-08-07T18:06:05;21.90;65.40
55207;DHT22;41079;52.856;6.534;2022-08-07T18:13:44;21.30;70.10
55207;DHT22;41079;52.856;6.534;2022-08-07T18:16:32;21.20;72.30
55207;DHT22;41079;52.856;6.534;2022-08-07T18:19:32;21.00;73.70
55207;DHT22;41079;52.856;6.534;2022-08-07T18:21:57;20.90;76.40
55207;DHT22;41079;52.856;6.534;2022-08-07T18:24:37;20.80;76.30
55207;DHT22;41079;52.856;6.534;2022-08-07T18:30:09;20.50;79.70
55207;DHT22;41079;52.856;6.534;2022-08-07T18:38:44;20.20;87.30
55207;DHT22;41079;52.856;6.534;2022-08-07T18:41:54;20.00;88.40
55207;DHT22;41079;52.856;6.534;2022-08-07T18:44:38;19.80;90.30
55207;DHT22;41079;52.856;6.534;2022-08-07T18:49:51;19.60;92.50
55207;DHT22;41079;52.856;6.534;2022-08-07T18:52:32;19.40;92.30
55207;DHT22;41079;52.856;6.534;2022-08-07T18:55:23;19.30;92.80
55207;DHT22;41079;52.856;6.534;2022-08-07T19:03:27;18.90;95.10
55207;DHT22;41079;52.856;6.534;2022-08-07T19:06:08;18.80;96.00
55207;DHT22;41079;52.856;6.534;2022-08-07T19:11:30;18.60;96.80
55207;DHT22;41079;52.856;6.534;2022-08-07T19:14:11;18.50;95.80
55207;DHT22;41079;52.856;6.534;2022-08-07T19:16:46;18.40;97.80
55207;DHT22;41079;52.856;6.534;2022-08-07T19:19:34;18.30;96.90
55207;DHT22;41079;52.856;6.534;2022-08-07T19:22:26;18.10;98.50
55207;DHT22;41079;52.856;6.534;2022-08-07T19:24:53;18.00;98.90